createdAt,value
2022-10-25T00:01:17.078Z,7.47
2022-10-25T00:03:43.855Z,9.57
2022-10-25T00:06:11.863Z,9.03
2022-10-25T00:08:38.797Z,11.07
2022-10-25T00:11:07.534Z,11.00
2022-10-25T00:13:34.475Z,7.27
2022-10-25T00:16:00.989Z,10.67
2022-10-25T00:18:27.631Z,9.57
2022-10-25T00:20:54.476Z,9.50
2022-10-25T00:23:21.024Z,7.03
2022-10-25T00:25:47.571Z,12.53
2022-10-25T00:28:14.072Z,8.60
2022-10-25T00:30:40.626Z,9.30
2022-10-25T00:33:07.163Z,7.60
2022-10-25T00:35:36.377Z,11.17
2022-10-25T00:38:02.927Z,9.63
2022-10-25T00:40:29.494Z,10.23
2022-10-25T00:42:55.982Z,10.07
2022-10-25T00:45:28.434Z,7.67
2022-10-25T00:48:10.103Z,9.47
2022-10-25T00:50:49.818Z,11.93
2022-10-25T00:53:27.463Z,9.93
2022-10-25T00:56:19.420Z,10.57
2022-10-25T00:58:51.706Z,9.47
2022-10-25T01:01:18.891Z,8.70
2022-10-25T01:03:49.413Z,11.07
2022-10-25T01:06:25.384Z,9.10
2022-10-25T01:08:54.056Z,12.30
2022-10-25T01:11:20.661Z,6.53
2022-10-25T01:13:48.878Z,13.13
2022-10-25T01:16:24.005Z,16.53
2022-10-25T01:19:21.597Z,12.23
2022-10-25T01:22:04.700Z,9.70
2022-10-25T01:25:08.422Z,14.00
2022-10-25T01:27:53.560Z,14.50
2022-10-25T01:30:25.933Z,9.47
2022-10-25T01:32:59.010Z,12.10
2022-10-25T01:35:51.198Z,12.77
2022-10-25T01:38:34.843Z,11.57
2022-10-25T01:41:10.220Z,9.80
2022-10-25T01:44:00.547Z,9.30
2022-10-25T01:46:53.379Z,8.70
2022-10-25T01:49:28.672Z,10.63
2022-10-25T01:51:55.235Z,12.83
2022-10-25T01:54:27.701Z,13.40
2022-10-25T01:57:15.539Z,9.90
2022-10-25T02:00:07.211Z,8.37
2022-10-25T02:03:11.368Z,10.67
2022-10-25T02:06:16.269Z,9.27
2022-10-25T02:08:56.241Z,11.33
2022-10-25T02:11:28.493Z,13.03
2022-10-25T02:14:27.164Z,13.43
2022-10-25T02:17:07.225Z,15.70
2022-10-25T02:19:37.687Z,14.77
2022-10-25T02:22:07.897Z,14.50
2022-10-25T02:24:35.338Z,13.83
2022-10-25T02:27:04.766Z,18.23
2022-10-25T02:29:33.039Z,12.93
2022-10-25T02:31:59.956Z,12.93
2022-10-25T02:34:26.464Z,12.63
2022-10-25T02:36:53.374Z,13.93
2022-10-25T02:39:22.088Z,15.77
2022-10-25T02:41:48.645Z,12.70
2022-10-25T02:44:15.166Z,14.47
2022-10-25T02:46:42.041Z,12.90
2022-10-25T02:49:08.709Z,9.33
2022-10-25T02:51:35.253Z,14.60
2022-10-25T02:54:01.761Z,14.27
2022-10-25T02:56:28.360Z,14.97
2022-10-25T02:58:58.424Z,17.07
2022-10-25T03:01:26.282Z,16.27
2022-10-25T03:03:52.842Z,15.23
2022-10-25T03:06:19.707Z,14.97
2022-10-25T03:08:46.522Z,13.63
2022-10-25T03:11:14.294Z,16.07
2022-10-25T03:13:41.045Z,12.90
2022-10-25T03:16:08.079Z,12.97
2022-10-25T03:18:34.601Z,16.63
2022-10-25T03:21:02.610Z,20.67
2022-10-25T03:23:29.509Z,12.77
2022-10-25T03:25:57.919Z,15.73
2022-10-25T03:28:25.754Z,16.83
2022-10-25T03:30:52.293Z,17.70
2022-10-25T03:33:19.421Z,19.20
2022-10-25T03:35:49.201Z,18.27
2022-10-25T03:38:15.711Z,23.47
2022-10-25T03:40:42.618Z,16.77
2022-10-25T03:43:09.164Z,17.53
2022-10-25T03:45:35.745Z,16.47
2022-10-25T03:48:02.240Z,20.33
2022-10-25T03:50:28.838Z,15.13
2022-10-25T03:52:55.363Z,17.10
2022-10-25T03:55:22.323Z,18.37
2022-10-25T03:57:49.157Z,16.70
2022-10-25T04:00:16.003Z,21.37
2022-10-25T04:02:42.517Z,17.53
2022-10-25T04:05:09.487Z,17.67
2022-10-25T04:07:35.998Z,22.80
2022-10-25T04:10:02.668Z,17.60
2022-10-25T04:12:29.181Z,17.50
2022-10-25T04:14:55.763Z,17.57
2022-10-25T04:17:22.322Z,18.87
2022-10-25T04:19:48.866Z,17.63
2022-10-25T04:22:15.390Z,18.80
2022-10-25T04:24:41.909Z,18.37
2022-10-25T04:27:08.407Z,17.27
2022-10-25T04:29:34.954Z,17.50
2022-10-25T04:32:01.450Z,18.20
2022-10-25T04:34:28.392Z,21.00
2022-10-25T04:36:54.929Z,18.60
2022-10-25T04:39:21.542Z,21.23
2022-10-25T04:41:48.092Z,16.90
2022-10-25T04:44:14.845Z,17.67
2022-10-25T04:46:45.066Z,17.43
2022-10-25T04:49:15.316Z,17.47
2022-10-25T04:51:42.112Z,18.57
2022-10-25T04:54:08.838Z,17.83
2022-10-25T04:56:35.411Z,20.20
2022-10-25T04:59:01.926Z,17.20
2022-10-25T05:01:28.583Z,14.93
2022-10-25T05:03:55.166Z,16.90
2022-10-25T05:06:25.444Z,20.50
2022-10-25T05:08:53.240Z,19.03
2022-10-25T05:11:22.564Z,15.70
2022-10-25T05:13:49.544Z,18.57
2022-10-25T05:16:22.099Z,18.00
2022-10-25T05:18:50.199Z,20.93
2022-10-25T05:21:18.329Z,23.20
2022-10-25T05:23:45.812Z,19.50
2022-10-25T05:26:18.603Z,21.77
2022-10-25T05:28:47.583Z,21.40
2022-10-25T05:31:23.059Z,20.73
2022-10-25T05:33:52.159Z,18.80
2022-10-25T05:36:19.291Z,25.57
2022-10-25T05:38:46.397Z,19.93
2022-10-25T05:41:14.787Z,20.03
2022-10-25T05:43:42.502Z,21.77
2022-10-25T05:46:16.134Z,18.87
2022-10-25T05:48:48.381Z,18.97
2022-10-25T05:51:39.052Z,23.40
2022-10-25T05:54:16.496Z,23.70
2022-10-25T05:56:43.708Z,21.93
2022-10-25T05:59:12.994Z,21.87
2022-10-25T06:01:44.995Z,21.90
2022-10-25T06:04:12.709Z,21.30
2022-10-25T06:06:40.717Z,16.60
2022-10-25T06:09:07.953Z,25.50
2022-10-25T06:11:34.752Z,22.33
2022-10-25T06:14:01.360Z,18.83
2022-10-25T06:16:27.968Z,20.73
2022-10-25T06:18:54.905Z,18.73
2022-10-25T06:21:24.862Z,24.13
2022-10-25T06:23:51.923Z,22.17
2022-10-25T06:26:21.550Z,20.37
2022-10-25T06:28:48.623Z,23.23
2022-10-25T06:31:18.129Z,19.70
2022-10-25T06:33:45.285Z,19.13
2022-10-25T06:36:15.511Z,22.60
2022-10-25T06:38:42.465Z,23.13
2022-10-25T06:41:14.759Z,27.43
2022-10-25T06:43:41.512Z,22.43
2022-10-25T06:46:10.375Z,21.57
2022-10-25T06:48:37.415Z,24.13
2022-10-25T06:51:06.603Z,25.23
2022-10-25T06:53:33.232Z,21.10
2022-10-25T06:56:05.973Z,23.37
2022-10-25T06:58:34.689Z,23.23
2022-10-25T07:01:06.569Z,22.77
2022-10-25T07:03:36.310Z,26.90
2022-10-25T07:06:06.309Z,23.17
2022-10-25T07:08:34.460Z,24.17
2022-10-25T07:11:01.038Z,25.60
2022-10-25T07:13:27.789Z,26.33
2022-10-25T07:16:01.340Z,23.90
2022-10-25T07:18:27.848Z,21.40
2022-10-25T07:21:02.469Z,26.27
2022-10-25T07:23:29.885Z,27.40
2022-10-25T07:25:57.538Z,22.73
2022-10-25T07:28:24.439Z,24.10
2022-10-25T07:30:51.820Z,27.67
2022-10-25T07:33:20.505Z,24.17
2022-10-25T07:36:06.140Z,26.30
2022-10-25T07:38:37.010Z,25.83
2022-10-25T07:41:04.113Z,22.27
2022-10-25T07:43:30.699Z,26.07
2022-10-25T07:45:57.390Z,22.40
2022-10-25T07:48:24.107Z,25.43
2022-10-25T07:50:50.756Z,25.50
2022-10-25T07:53:17.579Z,25.77
2022-10-25T07:55:49.379Z,32.10
2022-10-25T07:58:15.879Z,25.97
2022-10-25T08:00:42.479Z,25.63
2022-10-25T08:03:09.033Z,24.43
2022-10-25T08:05:35.600Z,26.27
2022-10-25T08:08:02.147Z,24.73
2022-10-25T08:10:28.718Z,26.97
2022-10-25T08:12:56.471Z,22.93
2022-10-25T08:15:23.441Z,21.83
2022-10-25T08:18:00.716Z,21.10
2022-10-25T08:20:49.187Z,23.50
2022-10-25T08:23:15.048Z,21.50
2022-10-25T08:25:41.793Z,22.60
2022-10-25T08:28:08.413Z,20.10
2022-10-25T08:30:35.194Z,21.43
2022-10-25T08:33:01.863Z,21.07
2022-10-25T08:35:28.541Z,22.70
2022-10-25T08:37:55.042Z,24.47
2022-10-25T08:40:26.209Z,22.77
2022-10-25T08:43:04.832Z,21.30
2022-10-25T08:45:43.771Z,22.80
2022-10-25T08:48:17.631Z,19.03
2022-10-25T08:50:55.868Z,18.03
2022-10-25T08:53:27.418Z,16.90
2022-10-25T08:56:11.614Z,18.70
2022-10-25T08:58:54.939Z,18.90
2022-10-25T09:01:30.186Z,20.10
2022-10-25T09:03:59.242Z,15.10
2022-10-25T09:06:38.214Z,18.77
2022-10-25T09:09:19.850Z,17.33
2022-10-25T09:11:57.241Z,16.17
2022-10-25T09:14:53.945Z,17.50
2022-10-25T09:17:22.653Z,13.27
2022-10-25T09:20:06.519Z,16.13
2022-10-25T09:22:46.847Z,13.57
2022-10-25T09:25:41.161Z,14.13
2022-10-25T09:28:44.267Z,12.37
2022-10-25T09:31:19.337Z,10.60
2022-10-25T09:33:47.632Z,15.43
2022-10-25T09:36:15.125Z,12.87
2022-10-25T09:38:52.907Z,9.33
2022-10-25T09:41:38.709Z,12.53
2022-10-25T09:44:19.902Z,13.27
2022-10-25T09:46:56.960Z,13.00
2022-10-25T09:49:27.915Z,15.00
2022-10-25T09:52:05.102Z,10.57
2022-10-25T09:54:39.815Z,14.70
2022-10-25T09:57:06.371Z,10.47
2022-10-25T09:59:33.616Z,14.03
2022-10-25T10:02:00.440Z,11.07
2022-10-25T10:04:36.536Z,10.90
2022-10-25T10:07:12.156Z,9.90
2022-10-25T10:09:45.740Z,15.03
2022-10-25T10:12:22.514Z,12.07
2022-10-25T10:14:58.808Z,11.60
2022-10-25T10:17:29.621Z,11.63
2022-10-25T10:20:14.596Z,10.07
2022-10-25T10:25:25.505Z,9.37
2022-10-25T10:27:55.919Z,13.03
2022-10-25T10:30:37.537Z,13.93
2022-10-25T10:33:05.112Z,9.07
2022-10-25T10:35:34.277Z,11.53
2022-10-25T10:38:22.711Z,10.87
2022-10-25T10:40:56.102Z,10.93
2022-10-25T10:43:34.278Z,10.57
2022-10-25T10:46:09.844Z,12.40
2022-10-25T10:48:42.917Z,9.33
2022-10-25T10:51:31.607Z,10.97
2022-10-25T10:54:32.694Z,12.20
2022-10-25T10:57:04.943Z,13.70
2022-10-25T10:59:45.403Z,10.83
2022-10-25T11:02:21.687Z,8.83
2022-10-25T11:04:53.473Z,11.50
2022-10-25T11:07:34.815Z,15.27
2022-10-25T11:10:16.646Z,8.23
2022-10-25T11:12:44.210Z,9.40
2022-10-25T11:15:14.513Z,8.27
2022-10-25T11:17:53.821Z,10.37
2022-10-25T11:20:26.173Z,13.03
2022-10-25T11:23:13.499Z,7.00
2022-10-25T11:25:54.994Z,9.23
2022-10-25T11:28:40.080Z,8.03
2022-10-25T11:31:40.562Z,9.50
2022-10-25T11:34:38.006Z,8.63
2022-10-25T11:37:29.686Z,8.07
2022-10-25T11:40:08.445Z,8.83
2022-10-25T11:42:53.982Z,4.67
2022-10-25T11:45:23.549Z,7.27
2022-10-25T11:48:09.156Z,6.50
2022-10-25T11:50:50.811Z,6.73
2022-10-25T11:53:41.967Z,7.77
2022-10-25T11:56:57.283Z,5.70
2022-10-25T11:59:38.836Z,8.43
2022-10-25T12:02:43.529Z,9.60
2022-10-25T12:05:25.541Z,8.30
2022-10-25T12:07:57.444Z,6.70
2022-10-25T12:10:32.575Z,6.27
2022-10-25T12:13:04.550Z,5.27
2022-10-25T12:15:43.353Z,8.40
2022-10-25T12:18:25.364Z,9.17
2022-10-25T12:20:54.251Z,9.20
2022-10-25T12:23:25.102Z,7.17
2022-10-25T12:25:56.776Z,9.30
2022-10-25T12:28:42.349Z,9.53
2022-10-25T12:31:19.819Z,8.20
2022-10-25T12:33:53.604Z,7.43
2022-10-25T12:36:35.101Z,6.60
2022-10-25T12:39:06.768Z,7.37
2022-10-25T12:41:37.609Z,5.93
2022-10-25T12:44:13.118Z,9.03
2022-10-25T12:46:48.214Z,7.23
2022-10-25T12:49:28.789Z,9.80
2022-10-25T12:52:08.978Z,5.27
2022-10-25T12:55:06.385Z,7.53
2022-10-25T12:57:48.248Z,9.43
2022-10-25T13:00:18.201Z,5.93
2022-10-25T13:03:16.987Z,7.00
2022-10-25T13:06:04.546Z,7.43
2022-10-25T13:08:32.067Z,6.97
2022-10-25T13:11:05.353Z,4.93
2022-10-25T13:13:34.549Z,6.70
2022-10-25T13:16:04.497Z,10.33
2022-10-25T13:18:34.044Z,6.83
2022-10-25T13:21:02.456Z,5.80
2022-10-25T13:23:46.568Z,7.13
2022-10-25T13:26:18.606Z,10.50
2022-10-25T13:28:52.972Z,9.73
2022-10-25T13:31:34.455Z,8.87
2022-10-25T13:34:12.955Z,11.10
2022-10-25T13:36:54.072Z,6.73
2022-10-25T13:39:38.000Z,6.93
2022-10-25T13:42:18.173Z,6.37
2022-10-25T13:44:54.805Z,7.47
2022-10-25T13:47:43.690Z,8.17
2022-10-25T13:50:29.317Z,8.43
2022-10-25T13:53:34.302Z,8.57
2022-10-25T13:56:13.237Z,7.03
2022-10-25T13:58:42.605Z,8.23
2022-10-25T14:01:15.074Z,6.23
2022-10-25T14:03:51.029Z,5.67
2022-10-25T14:06:36.711Z,5.67
2022-10-25T14:09:11.687Z,6.90
2022-10-25T14:12:03.474Z,9.13
2022-10-25T14:15:00.139Z,8.27
2022-10-25T14:17:34.725Z,6.83
2022-10-25T14:20:22.867Z,5.80
2022-10-25T14:23:18.545Z,7.30
2022-10-25T14:25:58.029Z,9.87
2022-10-25T14:28:26.897Z,5.73
2022-10-25T14:30:55.238Z,5.60
2022-10-25T14:33:45.808Z,8.90
2022-10-25T14:36:27.739Z,5.93
2022-10-25T14:38:58.751Z,6.43
2022-10-25T14:41:28.283Z,5.87
2022-10-25T14:43:55.428Z,9.30
2022-10-25T14:46:30.262Z,4.53
2022-10-25T14:48:58.616Z,10.53
2022-10-25T14:51:35.465Z,8.23
2022-10-25T14:54:05.543Z,9.60
2022-10-25T14:56:38.766Z,8.67
2022-10-25T14:59:07.867Z,6.43
2022-10-25T15:01:34.981Z,7.30
2022-10-25T15:04:02.188Z,6.47
2022-10-25T15:06:31.638Z,9.23
2022-10-25T15:09:37.060Z,8.87
2022-10-25T15:12:27.106Z,6.30
2022-10-25T15:14:55.439Z,7.47
2022-10-25T15:17:22.141Z,4.93
2022-10-25T15:20:14.970Z,4.17
2022-10-25T15:22:45.266Z,13.00
2022-10-25T15:25:33.544Z,8.20
2022-10-25T15:28:15.503Z,10.57
2022-10-25T15:30:56.618Z,9.57
2022-10-25T15:33:30.228Z,14.83
2022-10-25T15:36:02.591Z,14.33
2022-10-25T15:38:54.440Z,7.40
2022-10-25T15:41:18.471Z,9.23
2022-10-25T15:43:44.977Z,7.37
2022-10-25T15:46:24.837Z,10.63
2022-10-25T15:48:51.888Z,6.67
2022-10-25T15:51:18.693Z,7.43
2022-10-25T15:53:45.248Z,8.10
2022-10-25T15:56:15.260Z,8.13
2022-10-25T15:58:41.870Z,4.77
2022-10-25T16:01:09.465Z,3.90
2022-10-25T16:03:36.477Z,8.80
2022-10-25T16:06:03.280Z,5.53
2022-10-25T16:08:30.114Z,9.50
2022-10-25T16:10:58.216Z,9.90
2022-10-25T16:13:32.947Z,11.70
2022-10-25T16:16:04.358Z,8.07
2022-10-25T16:18:31.418Z,7.80
2022-10-25T16:20:59.217Z,7.97
2022-10-25T16:23:26.354Z,7.73
2022-10-25T16:25:54.852Z,6.63
2022-10-25T16:28:21.486Z,6.20
2022-10-25T16:30:48.248Z,10.87
2022-10-25T16:33:15.181Z,7.37
2022-10-25T16:35:41.700Z,5.93
2022-10-25T16:40:42.395Z,5.83
2022-10-25T16:43:12.859Z,8.40
2022-10-25T16:45:39.523Z,6.70
2022-10-25T16:48:06.452Z,10.23
2022-10-25T16:50:33.817Z,8.10
2022-10-25T16:53:02.524Z,8.20
2022-10-25T16:55:30.590Z,10.57
2022-10-25T16:58:00.848Z,5.57
2022-10-25T17:00:29.034Z,4.90
2022-10-25T17:02:55.590Z,10.40
2022-10-25T17:05:24.570Z,7.23
2022-10-25T17:07:51.298Z,9.67
2022-10-25T17:10:20.040Z,11.73
2022-10-25T17:12:49.576Z,6.27
2022-10-25T17:15:17.167Z,7.17
2022-10-25T17:17:45.717Z,6.57
2022-10-25T17:20:15.054Z,7.40
2022-10-25T17:22:42.069Z,8.87
2022-10-25T17:25:09.677Z,9.50
2022-10-25T17:27:39.982Z,10.77
2022-10-25T17:30:08.744Z,6.73
2022-10-25T17:32:35.951Z,8.77
2022-10-25T17:35:02.617Z,8.23
2022-10-25T17:37:29.146Z,6.47
2022-10-25T17:39:55.715Z,7.63
2022-10-25T17:42:22.384Z,7.00
2022-10-25T17:44:49.355Z,6.13
2022-10-25T17:47:16.232Z,6.73
2022-10-25T17:49:42.718Z,8.60
2022-10-25T17:52:09.845Z,5.20
2022-10-25T17:54:38.486Z,8.83
2022-10-25T17:57:05.973Z,6.80
2022-10-25T17:59:33.576Z,8.17
2022-10-25T18:02:00.518Z,10.07
2022-10-25T18:04:27.358Z,6.77
2022-10-25T18:06:53.965Z,8.07
2022-10-25T18:09:20.849Z,7.73
2022-10-25T18:11:47.368Z,10.13
2022-10-25T18:14:13.918Z,8.27
2022-10-25T18:16:41.448Z,6.67
2022-10-25T18:19:13.949Z,5.00
2022-10-25T18:21:41.295Z,6.13
2022-10-25T18:24:08.465Z,9.13
2022-10-25T18:26:35.586Z,6.10
2022-10-25T18:29:02.388Z,7.73
2022-10-25T18:31:29.165Z,6.73
2022-10-25T18:33:56.334Z,11.30
2022-10-25T18:36:23.529Z,6.47
2022-10-25T18:38:51.126Z,7.93
2022-10-25T18:41:20.701Z,6.13
2022-10-25T18:43:47.855Z,9.47
2022-10-25T18:46:14.751Z,7.77
2022-10-25T18:48:41.845Z,8.80
2022-10-25T18:51:11.433Z,6.90
2022-10-25T18:53:39.543Z,6.73
2022-10-25T18:56:16.999Z,6.80
2022-10-25T18:58:46.986Z,6.13
2022-10-25T19:01:16.915Z,10.07
2022-10-25T19:03:44.063Z,10.93
2022-10-25T19:06:11.037Z,9.30
2022-10-25T19:08:38.328Z,7.53
2022-10-25T19:11:07.715Z,8.80
2022-10-25T19:13:34.420Z,6.87
2022-10-25T19:16:01.501Z,6.80
2022-10-25T19:18:29.520Z,6.10
2022-10-25T19:21:01.143Z,7.33
2022-10-25T19:23:27.671Z,6.53
2022-10-25T19:25:54.294Z,6.73
2022-10-25T19:28:20.934Z,7.83
2022-10-25T19:30:47.433Z,7.83
2022-10-25T19:33:14.152Z,7.33
2022-10-25T19:35:40.634Z,8.10
2022-10-25T19:38:07.145Z,7.93
2022-10-25T19:40:33.697Z,8.13
2022-10-25T19:43:00.260Z,11.07
2022-10-25T19:45:26.779Z,9.03
2022-10-25T19:47:57.377Z,11.70
2022-10-25T19:50:25.102Z,7.57
2022-10-25T19:52:52.347Z,8.43
2022-10-25T19:55:19.682Z,8.97
2022-10-25T19:57:47.082Z,9.17
2022-10-25T20:00:14.370Z,8.70
2022-10-25T20:02:41.024Z,9.93
2022-10-25T20:05:07.986Z,9.90
2022-10-25T20:07:34.643Z,8.63
2022-10-25T20:10:01.150Z,9.60
2022-10-25T20:12:30.463Z,12.40
2022-10-25T20:14:57.688Z,12.00
2022-10-25T20:17:24.516Z,10.67
2022-10-25T20:19:51.033Z,9.47
2022-10-25T20:22:17.588Z,9.57
2022-10-25T20:24:44.095Z,10.40
2022-10-25T20:27:10.579Z,8.90
2022-10-25T20:29:37.661Z,9.63
2022-10-25T20:32:04.312Z,8.67
2022-10-25T20:34:32.327Z,7.83
2022-10-25T20:36:58.823Z,9.83
2022-10-25T20:39:25.359Z,9.27
2022-10-25T20:41:51.845Z,9.27
2022-10-25T20:44:18.404Z,10.40
2022-10-25T20:46:44.943Z,10.17
2022-10-25T20:49:11.647Z,9.80
2022-10-25T20:51:38.287Z,11.80
2022-10-25T20:54:09.465Z,13.37
2022-10-25T20:56:37.350Z,9.63
2022-10-25T20:59:04.270Z,12.13
2022-10-25T21:01:30.848Z,12.23
2022-10-25T21:03:57.403Z,9.43
2022-10-25T21:06:24.741Z,12.57
2022-10-25T21:08:51.278Z,12.43
2022-10-25T21:11:17.809Z,11.83
2022-10-25T21:13:44.333Z,11.47
2022-10-25T21:16:13.378Z,11.70
2022-10-25T21:18:40.695Z,11.03
2022-10-25T21:21:10.126Z,12.67
2022-10-25T21:23:37.051Z,13.13
2022-10-25T21:26:05.969Z,12.40
2022-10-25T21:28:37.557Z,16.50
2022-10-25T21:31:06.673Z,12.23
2022-10-25T21:33:33.674Z,12.70
2022-10-25T21:36:11.166Z,12.53
2022-10-25T21:38:38.209Z,11.90
2022-10-25T21:41:13.271Z,14.27
2022-10-25T21:43:47.601Z,14.03
2022-10-25T21:46:15.867Z,14.73
2022-10-25T21:48:43.834Z,12.47
2022-10-25T21:51:10.375Z,13.17
2022-10-25T21:53:36.899Z,12.67
2022-10-25T21:56:11.660Z,11.80
2022-10-25T21:58:39.818Z,13.27
2022-10-25T22:01:08.436Z,12.20
2022-10-25T22:03:35.142Z,15.10
2022-10-25T22:06:01.676Z,14.50
2022-10-25T22:08:28.257Z,11.63
2022-10-25T22:11:02.615Z,14.90
2022-10-25T22:13:29.679Z,14.47
2022-10-25T22:15:57.057Z,17.73
2022-10-25T22:18:23.661Z,11.93
2022-10-25T22:21:02.232Z,15.57
2022-10-25T22:23:30.669Z,13.17
2022-10-25T22:26:05.378Z,15.23
2022-10-25T22:28:36.664Z,13.33
2022-10-25T22:31:14.359Z,12.57
2022-10-25T22:34:09.441Z,15.90
2022-10-25T22:36:38.572Z,15.47
2022-10-25T22:39:06.413Z,13.67
2022-10-25T22:41:33.537Z,11.47
2022-10-25T22:44:00.880Z,14.33
2022-10-25T22:46:30.134Z,15.00
2022-10-25T22:48:58.565Z,14.77
2022-10-25T22:51:27.605Z,13.63
2022-10-25T22:53:54.199Z,16.23
2022-10-25T22:56:26.122Z,15.53
2022-10-25T22:59:01.109Z,16.53
2022-10-25T23:01:29.873Z,14.80
2022-10-25T23:03:57.992Z,14.13
2022-10-25T23:06:30.448Z,15.50
2022-10-25T23:08:59.143Z,14.60
2022-10-25T23:11:28.616Z,17.33
2022-10-25T23:13:57.111Z,16.07
2022-10-25T23:16:24.179Z,15.30
2022-10-25T23:18:50.831Z,15.30
2022-10-25T23:21:19.395Z,13.13
2022-10-25T23:23:46.783Z,13.67
2022-10-25T23:26:33.621Z,19.33
2022-10-25T23:29:01.101Z,15.20
2022-10-25T23:31:28.550Z,17.87
2022-10-25T23:33:56.954Z,13.47
2022-10-25T23:36:26.507Z,16.23
2022-10-25T23:38:54.841Z,15.60
2022-10-25T23:41:22.225Z,18.07
2022-10-25T23:43:48.893Z,17.67
2022-10-25T23:46:15.450Z,18.03
2022-10-25T23:48:42.162Z,15.67
2022-10-25T23:51:11.527Z,14.20
2022-10-25T23:53:38.558Z,13.90
2022-10-25T23:56:07.485Z,14.83
2022-10-25T23:58:34.425Z,14.27
